Flight Track Log - Related Links

Times and Time Zones

All times are in EDT time to prevent confusion due to time zone crossing. See the DAL571 flight status page for this flight to view local times or setup timezone preferences in your user account.

Time Position Orientation Groundspeed Altitude Reporting Facility
EDT Latitude Longitude Course Direction KTS MPH feet Rate Location/Type
Sat 10:10:36 AM 33.6333 -84.4667 140° Southeast 175 201 2,400  Level Atlanta TRACON
Sat 10:11:36 AM 33.6333 -84.5500 270° West 250 288 4,800 2,950 Climbing Atlanta TRACON
Sat 10:12:36 AM 33.6000 -84.6167 239° Southwest 273 314 8,300 1,837 Climbing Atlanta TRACON
Sat 10:13:00 AM 33.3535 -84.2368 140° Southeast  Level FlightAware Approximate
Sat 10:14:00 AM 33.2540 -84.1370 140° Southeast  Level FlightAware Approximate
Sat 10:15:00 AM 33.1543 -84.0375 140° Southeast  Level FlightAware Approximate
Sat 10:15:05 AM 33.4197 -84.4892 149° Southeast 323 372 11,200  Level Atlanta Center
Sat 10:16:05 AM 33.3472 -84.3744 127° Southeast 374 430 13,700 2,450 Climbing Atlanta Center
Sat 10:17:05 AM 33.2700 -84.2600 129° Southeast 428 493 16,100 2,200 Climbing Atlanta Center
Sat 10:18:05 AM 33.1953 -84.1456 128° Southeast 440 506 18,100 1,900 Climbing Atlanta Center
Sat 10:19:05 AM 33.1139 -84.0239 129° Southeast 454 522 19,900 1,750 Climbing Atlanta Center
Sat 10:20:05 AM 33.0197 -83.9225 138° Southeast 460 529 21,600 1,650 Climbing Atlanta Center
Sat 10:21:05 AM 32.9133 -83.8333 145° Southeast 460 529 23,200 1,600 Climbing Atlanta Center
Sat 10:22:05 AM 32.8044 -83.7447 146° Southeast 470 541 24,800 1,500 Climbing Atlanta Center
Sat 10:23:05 AM 32.6958 -83.6539 145° Southeast 477 549 26,200 1,500 Climbing Atlanta Center
Sat 10:24:05 AM 32.5908 -83.5483 140° Southeast 483 556 27,800 1,631 Climbing Atlanta Center
Sat 10:26:20 AM 32.3642 -83.3206 140° Southeast 493 567 31,500 2,103 Climbing Jacksonville Center
Sat 10:27:19 AM 32.2683 -83.2242 140° Southeast 469 540 34,600 2,350 Climbing Jacksonville Center
Sat 10:28:20 AM 32.1831 -83.1381 139° Southeast 433 498 36,200 992 Climbing Jacksonville Center
Sat 10:29:20 AM 32.0933 -83.0519 141° Southeast 421 484 36,600 400 Climbing Jacksonville Center
Sat 10:30:20 AM 32.0017 -82.9636 141° Southeast 421 484 37,000 300 Climbing Jacksonville Center
Sat 10:31:20 AM 31.9078 -82.8706 140° Southeast 432 497 37,200 300 Climbing Jacksonville Center
Sat 10:33:20 AM 31.6883 -82.7119 148° Southeast 439 505 37,900 267 Climbing Jacksonville Center
Sat 10:34:20 AM 31.5794 -82.6342 149° Southeast 450 518 38,000 50 Climbing Jacksonville Center
Sat 10:35:20 AM 31.4728 -82.5589 149° Southeast 450 518 38,000  Level Jacksonville Center
Sat 10:36:20 AM 31.3642 -82.4861 150° Southeast 450 518 38,000  Level Jacksonville Center
Sat 10:37:20 AM 31.2678 -82.4211 150° Southeast 444 511 38,000  Level Jacksonville Center
Sat 10:38:20 AM 31.1611 -82.3511 151° Southeast 444 511 38,000  Level Jacksonville Center
Sat 10:39:20 AM 31.0522 -82.2742 149° Southeast 444 511 38,000  Level Jacksonville Center
Sat 10:40:20 AM 30.9328 -82.1950 150° Southeast 449 517 38,000  Level Jacksonville Center
Sat 10:41:20 AM 30.8364 -82.1306 150° Southeast 449 517 38,000  Level Jacksonville Center
Sat 10:42:20 AM 30.7231 -82.0539 150° Southeast 443 510 38,000  Level Jacksonville Center
Sat 10:43:20 AM 30.6161 -81.9825 150° Southeast 443 510 38,000  Level Jacksonville Center
Sat 10:44:20 AM 30.5133 -81.9089 148° Southeast 463 533 38,000  Level Jacksonville Center
Sat 10:45:20 AM 30.4042 -81.8328 149° Southeast 471 542 38,000  Level Jacksonville Center
Sat 10:46:20 AM 30.2886 -81.7572 151° Southeast 465 535 38,000  Level Jacksonville Center
Sat 10:47:20 AM 30.1606 -81.6769 152° Southeast 470 541 38,000  Level Jacksonville Center
Sat 10:48:20 AM 30.0469 -81.6017 150° Southeast 470 541 38,000  Level Jacksonville Center
Sat 10:49:20 AM 29.9294 -81.5264 151° Southeast 477 549 38,000  Level Jacksonville Center
Sat 10:50:20 AM 29.8158 -81.4514 150° Southeast 477 549 38,000  Level Jacksonville Center
Sat 10:51:20 AM 29.7000 -81.3742 150° Southeast 477 549 38,000  Level Jacksonville Center
Sat 10:52:20 AM 29.5822 -81.2972 150° Southeast 477 549 38,000  Level Jacksonville Center
Sat 10:53:20 AM 29.4644 -81.2231 151° Southeast 482 555 38,000  Level Jacksonville Center
Sat 10:54:20 AM 29.3653 -81.1508 148° Southeast 475 547 38,000  Level Jacksonville Center
Sat 10:56:40 AM 29.0694 -80.9903 155° Southeast 488 562 38,000  Level Miami Center
Sat 10:57:40 AM 28.9836 -80.8542 126° Southeast 490 564 38,000  Level Miami Center
Sat 10:58:40 AM 28.9119 -80.7306 123° Southeast 510 587 38,000  Level Miami Center
Sat 10:59:40 AM 28.8156 -80.5853 127° Southeast 515 593 38,000  Level Miami Center
Sat 11:00:40 AM 28.7231 -80.4519 128° Southeast 522 601 38,000  Level Miami Center
Sat 11:01:40 AM 28.6344 -80.3261 129° Southeast 522 601 38,000  Level Miami Center
Sat 11:02:40 AM 28.5517 -80.2078 129° Southeast 530 610 38,000  Level Miami Center
Sat 11:03:40 AM 28.4528 -80.0631 128° Southeast 530 610 38,000  Level Miami Center
Sat 11:04:40 AM 28.3575 -79.9331 130° Southeast 537 618 38,000  Level Miami Center
Sat 11:05:40 AM 28.2642 -79.8056 130° Southeast 537 618 38,000  Level Miami Center
Sat 11:06:40 AM 28.1728 -79.6783 129° Southeast 532 612 38,000  Level Miami Center
Sat 11:07:40 AM 28.0792 -79.5464 129° Southeast 532 612 38,000  Level Miami Center
Sat 11:08:40 AM 27.9875 -79.4197 129° Southeast 532 612 38,000  Level Miami Center
Sat 11:09:40 AM 27.8958 -79.2931 129° Southeast 532 612 38,000  Level Miami Center
Sat 11:10:40 AM 27.8061 -79.1619 128° Southeast 532 612 38,000  Level Miami Center
Sat 11:11:40 AM 27.7203 -79.0478 130° Southeast 532 612 38,000  Level Miami Center
Sat 11:12:40 AM 27.6281 -78.9194 129° Southeast 527 606 38,000 300 Level Miami Center
Sat 11:13:40 AM 27.5297 -78.7817 129° Southeast 527 606 38,600 500 Climbing Miami Center
Sat 11:14:40 AM 27.4353 -78.6586 131° Southeast 527 606 39,000 200 Climbing Miami Center
Sat 11:15:40 AM 27.3556 -78.5239 124° Southeast 527 606 39,000  Level Miami Center
Sat 11:16:40 AM 27.2819 -78.3850 121° Southeast 521 600 39,000  Level Miami Center
Sat 11:17:40 AM 27.2122 -78.2439 119° Southeast 516 594 39,000  Level Miami Center
Sat 11:18:40 AM 27.1444 -78.1169 121° Southeast 523 602 39,000  Level Miami Center
Sat 11:19:40 AM 27.0683 -77.9786 122° Southeast 523 602 39,000  Level Miami Center
Sat 11:20:40 AM 26.9942 -77.8356 120° Southeast 517 595 39,000  Level Miami Center
Sat 11:21:40 AM 26.9178 -77.6953 121° Southeast 522 601 39,000  Level Miami Center
Sat 11:22:40 AM 26.8433 -77.5619 122° Southeast 513 590 39,000  Level Miami Center
Sat 11:23:40 AM 26.7603 -77.4147 122° Southeast 518 596 39,000  Level Miami Center
Sat 11:24:40 AM 26.6875 -77.2772 121° Southeast 514 592 39,000  Level Miami Center
Sat 11:25:40 AM 26.6106 -77.1375 122° Southeast 514 592 39,000  Level Miami Center
Sat 11:26:40 AM 26.5378 -77.0003 121° Southeast 514 592 39,000  Level Miami Center
Sat 11:27:40 AM 26.4625 -76.8681 122° Southeast 514 592 39,000  Level Miami Center
Sat 11:28:40 AM 26.3853 -76.7264 121° Southeast 519 597 39,000  Level Miami Center
Sat 11:29:40 AM 26.3139 -76.5967 122° Southeast 514 592 39,000  Level Miami Center
Sat 11:30:40 AM 26.2383 -76.4603 122° Southeast 514 592 39,000  Level Miami Center
Sat 11:31:40 AM 26.1669 -76.3308 122° Southeast 508 585 39,000  Level Miami Center
Sat 11:32:40 AM 26.0892 -76.1947 122° Southeast 508 585 39,000  Level Miami Center
Sat 11:33:40 AM 26.0153 -76.0608 122° Southeast 508 585 39,000  Level Miami Center
Sat 11:34:40 AM 25.9456 -75.9342 121° Southeast 501 577 39,000  Level Miami Center
Sat 11:35:40 AM 25.8736 -75.8008 121° Southeast 501 577 39,000  Level Miami Center
Sat 11:36:40 AM 25.7953 -75.6656 123° Southeast 515 593 39,000  Level Miami Center
Sat 11:37:40 AM 25.7167 -75.5325 123° Southeast 510 587 39,000  Level Miami Center
Sat 11:38:40 AM 25.6594 -75.4269 121° Southeast 510 587 39,000  Level Miami Center
Sat 11:39:40 AM 25.5700 -75.2853 125° Southeast 510 587 39,000  Level Miami Center
Sat 11:40:40 AM 25.4956 -75.1503 121° Southeast 505 581 39,000  Level Miami Center
Sat 11:41:40 AM 25.4228 -75.0250 123° Southeast 505 581 39,000  Level Miami Center
Sat 11:42:40 AM 25.3439 -74.8903 123° Southeast 505 581 39,000  Level Miami Center
Sat 11:43:40 AM 25.2711 -74.7631 122° Southeast 505 581 39,000  Level Miami Center
Sat 11:44:40 AM 25.1981 -74.6333 122° Southeast 499 574 39,000  Level Miami Center
Sat 11:45:40 AM 25.1231 -74.5039 123° Southeast 499 574 39,000  Level Miami Center
Sat 11:46:40 AM 25.0478 -74.3769 123° Southeast 499 574 39,000  Level Miami Center
Sat 11:47:40 AM 24.9744 -74.2500 122° Southeast 494 568 39,000  Level Miami Center
Sat 11:48:40 AM 24.9011 -74.1233 123° Southeast 494 568 39,000  Level Miami Center
Sat 11:49:40 AM 24.8278 -73.9992 123° Southeast 494 568 39,000  Level Miami Center
Sat 11:50:40 AM 24.7519 -73.8703 123° Southeast 494 568 39,000  Level Miami Center
Sat 11:51:40 AM 24.6806 -73.7464 122° Southeast 494 568 39,000  Level Miami Center
Sat 11:52:40 AM 24.5981 -73.6067 123° Southeast 489 563 39,000  Level Miami Center
Sat 11:53:40 AM 24.5222 -73.4831 124° Southeast 495 570 39,000  Level Miami Center
Sat 11:54:40 AM 24.4400 -73.3644 127° Southeast 495 570 39,000  Level Miami Center
Sat 11:55:40 AM 24.3619 -73.2436 125° Southeast 490 564 39,000  Level Miami Center
Sat 11:56:40 AM 24.2775 -73.1206 127° Southeast 490 564 39,000  Level Miami Center
Sat 11:57:40 AM 24.1992 -73.0022 126° Southeast 490 564 39,000  Level Miami Center
Sat 11:58:40 AM 24.1208 -72.8819 125° Southeast 490 564 39,000  Level Miami Center
Sat 11:59:40 AM 24.0361 -72.7594 127° Southeast 490 564 39,000  Level Miami Center
Sat 12:00:40 PM 23.9617 -72.6414 125° Southeast 490 564 39,000  Level Miami Center
Sat 12:01:40 PM 23.8769 -72.5217 128° Southeast 490 564 39,000  Level Miami Center
Sat 12:02:40 PM 23.8044 -72.4039 124° Southeast 485 558 39,000  Level Miami Center
Sat 12:03:40 PM 23.7236 -72.2842 126° Southeast 485 558 39,000  Level Miami Center
Sat 12:04:40 PM 23.6447 -72.1603 125° Southeast 491 565 39,000  Level Miami Center
Sat 12:05:40 PM 23.5614 -72.0386 127° Southeast 491 565 39,000  Level Miami Center
Sat 12:06:40 PM 23.4803 -71.9194 127° Southeast 491 565 39,000  Level Miami Center
Sat 12:07:40 PM 23.3947 -71.7983 128° Southeast 496 571 39,000  Level Miami Center
Sat 12:08:40 PM 23.3156 -71.6817 126° Southeast 496 571 39,000  Level Miami Center
Sat 12:09:40 PM 23.2342 -71.5586 126° Southeast 496 571 39,000  Level Miami Center
Sat 12:10:40 PM 23.1506 -71.4378 127° Southeast 501 577 39,000  Level Miami Center
Sat 12:11:40 PM 23.0667 -71.3153 127° Southeast 501 577 39,000  Level Miami Center
Sat 12:12:40 PM 22.9850 -71.1925 126° Southeast 501 577 39,000  Level Miami Center
Sat 12:13:40 PM 22.9097 -71.0853 127° Southeast 501 577 39,000  Level Miami Center
Sat 12:14:40 PM 22.8319 -70.9628 125° Southeast 501 577 39,000  Level Miami Center
Sat 12:15:40 PM 22.7283 -70.8214 128° Southeast 474 545 39,000  Level Miami Center
Sat 12:16:40 PM 22.6442 -70.6992 127° Southeast 500 575 39,000  Level Miami Center
Sat 12:17:40 PM 22.5778 -70.6036 127° Southeast 510 587 39,000  Level Miami Center
Sat 12:18:40 PM 22.4844 -70.4689 127° Southeast 505 581 39,000  Level Miami Center
Sat 12:19:40 PM 22.3978 -70.3475 128° Southeast 510 587 39,000  Level Miami Center
Sat 12:20:40 PM 22.3156 -70.2306 127° Southeast 504 580 39,000  Level Miami Center
Sat 12:21:40 PM 22.2289 -70.1094 128° Southeast 504 580 39,000  Level Miami Center
Sat 12:22:40 PM 22.1444 -69.9886 127° Southeast 509 586 39,000  Level Miami Center
Sat 12:23:40 PM 22.0597 -69.8700 128° Southeast 509 586 39,000  Level Miami Center
Sat 12:24:40 PM 21.9728 -69.7472 127° Southeast 509 586 39,000  Level Miami Center
Sat 12:25:40 PM 21.8900 -69.6308 127° Southeast 509 586 39,000  Level Miami Center
Sat 12:26:40 PM 21.8072 -69.5106 127° Southeast 509 586 39,000  Level Miami Center
Sat 12:27:40 PM 21.7225 -69.3947 128° Southeast 509 586 39,000  Level Miami Center
Sat 12:28:40 PM 21.6353 -69.2747 128° Southeast 509 586 39,000  Level Miami Center
Sat 12:29:40 PM 21.5522 -69.1592 128° Southeast 504 580 39,000  Level Miami Center
Sat 12:30:40 PM 21.4672 -69.0417 128° Southeast 504 580 39,000  Level Miami Center
Sat 12:31:40 PM 21.3906 -68.9283 126° Southeast 495 570 39,000  Level Miami Center
Sat 12:32:40 PM 21.3033 -68.8133 129° Southeast 495 570 39,000  Level Miami Center
Sat 12:33:40 PM 21.2200 -68.6961 127° Southeast 495 570 39,000  Level Miami Center
Sat 12:34:40 PM 21.1328 -68.5817 129° Southeast 495 570 39,000  Level Miami Center
Sat 12:35:40 PM 21.0536 -68.4667 126° Southeast 495 570 39,000  Level Miami Center
Sat 12:36:40 PM 20.9639 -68.3503 130° Southeast 495 570 39,000  Level Miami Center
Sat 12:37:40 PM 20.8786 -68.2383 129° Southeast 495 570 39,000  Level Miami Center
Sat 12:38:40 PM 20.7931 -68.1242 129° Southeast 495 570 39,000  Level Miami Center
Sat 12:39:40 PM 20.7119 -68.0122 128° Southeast 495 570 39,000  Level Miami Center
Sat 12:40:40 PM 20.6264 -67.8983 129° Southeast 495 570 39,000  Level Miami Center
Sat 12:41:40 PM 20.5386 -67.7869 130° Southeast 495 570 39,000  Level Miami Center
Sat 12:42:40 PM 20.4489 -67.6761 131° Southeast 500 575 39,000  Level Miami Center
Sat 12:43:39 PM 20.3833 -67.5500 119° Southeast 490 564 39,000  Level San Juan Center
Sat 12:44:40 PM 20.2833 -67.4500 137° Southeast 490 564 39,000  Level San Juan Center
Sat 12:45:40 PM 20.2000 -67.3333 127° Southeast 480 552 39,000  Level San Juan Center
Sat 12:46:40 PM 20.1167 -67.2167 127° Southeast 480 552 39,000  Level San Juan Center
Sat 12:47:41 PM 20.0333 -67.1167 132° Southeast 480 552 39,000 -347 Level San Juan Center
Sat 12:48:41 PM 19.9500 -67.0000 127° Southeast 480 552 38,300 -800 Descending San Juan Center
Sat 12:49:41 PM 19.8667 -66.8833 127° Southeast 480 552 37,400 -744 Descending San Juan Center
Sat 12:50:42 PM 19.7833 -66.7833 132° Southeast 480 552 36,800 -545 Descending San Juan Center
Sat 12:51:42 PM 19.7000 -66.6667 127° Southeast 480 552 36,300 -600 Descending San Juan Center
Sat 12:52:42 PM 19.6167 -66.5667 131° Southeast 470 541 35,600 -645 Descending San Juan Center
Sat 12:53:43 PM 19.5333 -66.4500 127° Southeast 470 541 35,000 -694 Descending San Juan Center
Sat 12:54:43 PM 19.4500 -66.3500 131° Southeast 470 541 34,200 -950 Descending San Juan Center
Sat 12:55:43 PM 19.3667 -66.2333 127° Southeast 460 529 33,100 -1,140 Descending San Juan Center
Sat 12:56:44 PM 19.3667 -66.1000 90° East 460 529 31,900 -1,190 Descending San Juan Center
Sat 12:57:44 PM 19.3833 -65.9667 82° East 450 518 30,700 -1,500 Descending San Juan Center
Sat 12:58:44 PM 19.3667 -65.8167 97° East 420 483 28,900 -2,628 Descending San Juan Center
Sat 12:59:45 PM 19.2833 -65.7333 137° Southeast 430 495 25,400 -2,479 Descending San Juan Center
Sat 01:00:45 PM 19.1833 -65.6833 155° Southeast 430 495 23,900 -2,600 Descending San Juan Center
Sat 01:01:45 PM 19.0667 -65.6167 152° Southeast 440 506 20,200 -3,223 Descending San Juan Center
Sat 01:02:46 PM 18.9667 -65.5333 142° Southeast 440 506 17,400 -2,727 Descending San Juan Center
Sat 01:03:46 PM 18.8667 -65.4833 155° Southeast 420 483 14,700 -2,650 Descending San Juan Center
Sat 01:04:46 PM 18.7667 -65.4333 155° Southeast 410 472 12,100 -2,550 Descending San Juan Center
Sat 01:05:46 PM 18.6667 -65.3667 148° Southeast 410 472 9,600 -2,430 Descending San Juan Center
Sat 01:06:47 PM 18.5667 -65.3167 155° Southeast 370 426 7,200 -1,488 Descending San Juan Center
Sat 01:07:47 PM 18.5000 -65.2667 145° Southeast 290 334 6,600 -600 Descending San Juan Center
Sat 01:08:47 PM 18.4500 -65.2500 162° South 190 219 6,000 -1,091 Descending San Juan Center
Sat 01:09:48 PM 18.4000 -65.2167 148° Southeast 170 196 4,400 -1,488 Descending San Juan Center
Sat 01:10:48 PM 18.3667 -65.2000 155° Southeast 170 196 3,000 -800 Descending San Juan Center
Sat 01:11:48 PM 18.3167 -65.1667 148° Southeast 170 196 2,800 -198 Descending San Juan Center
Sat 01:12:49 PM 18.3167 -65.1167 90° East 160 184 2,600 -446 Descending San Juan Center
Sat 01:13:49 PM 18.3167 -65.0833 90° East 110 127 1,900 -700 Descending San Juan Center

Login

Don't have an account? Register now (free) for customized features, flight alerts, and more!